»·PEaware :: CAD195 KSAN-KTUS

CAD195 :: KSAN-KTUS

FLIGHT INFORMATION

Flight Status: Arrived
Operator: Unknown
More flights by this operator :: More flights under this callsign
Pilot: Max W. (2591)
Aircraft: BOEING 727-200
(B722)
More flights by this aircraft type
Origin: KSAN San Diego Intl-Lindbergh
United States
Destination: KTUS Tucson Intl
United States
More flights between these airports :: More routes between these airports
Route: +BRDR7 IPL V66 GBN DINGO5
File this flight plan on PilotEdge
Remarks:
Altitude:
(Current/Filed)
30,000ft
Speed:
(Current/Filed)
450kts
Departed: 06-Oct-18 06:29 PM
Arrived: 06-Oct-18 07:23 PM
Distance/Time
Traveled:
319nm/0:53
Distance/Time
To Go:
Arrived

Flight Plot

Page will automatically refresh every two minutes.

Flight plan parsing failed; only flown route is shown


Map Options




Map Legend


Flown Route
Filed Route
Departure Airport
Arrival Airport
Navaid (VOR, NDB)
Fix

Horizontal Profiles

Position Reports

Time Latitude Longitude Heading Altitude Ground
Speed
06-Oct-18 18:01 32.733972 -117.183103 105 27ft 0kts
06-Oct-18 18:02 32.733972 -117.183103 105 27ft 0kts
06-Oct-18 18:03 32.733972 -117.183103 105 27ft 0kts
06-Oct-18 18:04 32.733972 -117.183103 105 27ft 0kts
06-Oct-18 18:05 32.733972 -117.183103 105 26ft 0kts
06-Oct-18 18:06 32.733972 -117.183103 105 27ft 0kts
06-Oct-18 18:07 32.733972 -117.183103 105 27ft 0kts
06-Oct-18 18:08 32.733972 -117.183103 105 27ft 0kts
06-Oct-18 18:09 32.733972 -117.183103 104 27ft 0kts
06-Oct-18 18:10 32.733972 -117.183103 104 27ft 0kts
06-Oct-18 18:11 32.733972 -117.183103 104 26ft 0kts
06-Oct-18 18:12 32.733970 -117.183101 103 26ft 0kts
06-Oct-18 18:13 32.733714 -117.182974 210 26ft 0kts
06-Oct-18 18:14 32.733714 -117.182974 210 26ft 0kts
06-Oct-18 18:15 32.733714 -117.182974 210 26ft 0kts
06-Oct-18 18:16 32.733714 -117.182974 210 26ft 0kts
06-Oct-18 18:17 32.733714 -117.182974 210 26ft 0kts
06-Oct-18 18:18 32.733714 -117.182974 211 26ft 0kts
06-Oct-18 18:19 32.733714 -117.182974 211 26ft 0kts
06-Oct-18 18:20 32.733118 -117.182763 121 26ft 11kts
06-Oct-18 18:21 32.732232 -117.179448 105 26ft 10kts
06-Oct-18 18:22 32.731237 -117.176188 109 32ft 4kts
06-Oct-18 18:23 32.731236 -117.176183 109 32ft 0kts
06-Oct-18 18:24 32.731235 -117.176183 109 32ft 0kts
06-Oct-18 18:25 32.731235 -117.176183 109 32ft 0kts
06-Oct-18 18:26 32.731236 -117.176183 109 32ft 0kts
06-Oct-18 18:27 32.731135 -117.175903 114 33ft 0kts
06-Oct-18 18:28 32.730223 -117.175900 284 29ft 0kts
06-Oct-18 18:29 32.730223 -117.175900 284 29ft 0kts
06-Oct-18 18:30 32.730325 -117.176330 287 29ft 29kts
06-Oct-18 18:31 32.739180 -117.224821 288 2904ft 198kts
06-Oct-18 18:32 32.755655 -117.281846 289 5949ft 250kts
06-Oct-18 18:33 32.724205 -117.348395 189 7861ft 272kts
06-Oct-18 18:34 32.660054 -117.299517 137 7892ft 300kts
06-Oct-18 18:35 32.614958 -117.214683 85 11555ft 326kts
06-Oct-18 18:36 32.623653 -117.103870 89 14506ft 371kts
06-Oct-18 18:37 32.626566 -116.964178 69 15109ft 476kts
06-Oct-18 18:38 32.709267 -116.846378 42 18826ft 469kts
06-Oct-18 18:39 32.778383 -116.717856 67 21847ft 483kts
06-Oct-18 18:40 32.810509 -116.563618 96 23895ft 506kts
06-Oct-18 18:41 32.789941 -116.405407 114 27810ft 468kts
06-Oct-18 18:42 32.769512 -116.252496 91 28606ft 475kts
06-Oct-18 18:43 32.764763 -116.092658 90 28711ft 499kts
06-Oct-18 18:44 32.760212 -115.928447 90 28702ft 495kts
06-Oct-18 18:45 32.755678 -115.766749 90 28704ft 486kts
06-Oct-18 18:46 32.751218 -115.606800 90 28702ft 486kts
06-Oct-18 18:47 32.746753 -115.446515 90 28681ft 486kts
06-Oct-18 18:48 32.742275 -115.287511 90 28680ft 485kts
06-Oct-18 18:49 32.738336 -115.128093 90 28690ft 484kts
06-Oct-18 18:50 32.748881 -114.969130 83 28689ft 484kts
06-Oct-18 18:51 32.765438 -114.811004 83 28692ft 485kts
06-Oct-18 18:52 32.778345 -114.652056 91 28698ft 483kts
06-Oct-18 18:53 32.764153 -114.494169 83 28717ft 499kts
06-Oct-18 18:54 32.779406 -114.326787 85 28692ft 533kts
06-Oct-18 18:55 32.787694 -114.149459 89 28689ft 547kts
06-Oct-18 18:56 32.792530 -113.968056 89 28688ft 551kts
06-Oct-18 18:57 32.820823 -113.791347 77 28686ft 539kts
06-Oct-18 18:58 32.847260 -113.618655 80 28715ft 527kts
06-Oct-18 18:59 32.868540 -113.447145 81 28752ft 524kts
06-Oct-18 19:00 32.888088 -113.278575 84 28742ft 522kts
06-Oct-18 19:01 32.904883 -113.107583 84 28764ft 516kts
06-Oct-18 19:02 32.920731 -112.948702 83 25414ft 474kts
06-Oct-18 19:03 32.938937 -112.798653 79 23747ft 455kts
06-Oct-18 19:04 32.951299 -112.649294 107 23748ft 454kts
06-Oct-18 19:05 32.911062 -112.506767 118 23751ft 455kts
06-Oct-18 19:06 32.857358 -112.369471 118 23762ft 461kts
06-Oct-18 19:07 32.812566 -112.259157 119 23813ft 435kts
06-Oct-18 19:08 32.752354 -112.108659 118 21502ft 426kts
06-Oct-18 19:09 32.711731 -112.003850 118 20033ft 416kts
06-Oct-18 19:10 32.665625 -111.879757 117 18309ft 405kts
06-Oct-18 19:11 32.613517 -111.739398 117 16382ft 393kts
06-Oct-18 19:12 32.578141 -111.644156 121 13361ft 383kts
06-Oct-18 19:13 32.514088 -111.528449 128 11799ft 346kts
06-Oct-18 19:14 32.469370 -111.452088 134 11798ft 329kts
06-Oct-18 19:15 32.403519 -111.368482 136 11817ft 380kts
06-Oct-18 19:16 32.333138 -111.280313 137 11695ft 321kts
06-Oct-18 19:17 32.273263 -111.204134 136 10526ft 308kts
06-Oct-18 19:18 32.215505 -111.131206 136 9278ft 303kts
06-Oct-18 19:19 32.158205 -111.059333 136 8012ft 299kts
06-Oct-18 19:20 32.101272 -110.988358 136 6763ft 297kts
06-Oct-18 19:21 32.044645 -110.918966 136 4814ft 260kts
06-Oct-18 19:22 32.045541 -110.855983 21 4022ft 236kts
06-Oct-18 19:23 32.075965 -110.889915 298 3595ft 150kts
06-Oct-18 19:24 32.103128 -110.924127 312 2608ft 138kts
06-Oct-18 19:25 32.111462 -110.932149 58 2603ft 0kts
06-Oct-18 19:26 32.111462 -110.932149 58 2603ft 0kts
06-Oct-18 19:27 32.111462 -110.932149 58 2603ft 0kts

Navigation Log

Ident Type
Flight plan parsing failed, navigation log unavailable